sensor_id;sensor_type;location;lat;lon;timestamp;P1;durP1;ratioP1;P2;durP2;ratioP2
5333;SDS011;2689;50.954;7.116;2023-04-16T00:00:28;40.40;;;27.57;;
5333;SDS011;2689;50.954;7.116;2023-04-16T00:02:55;46.90;;;29.93;;
5333;SDS011;2689;50.954;7.116;2023-04-16T00:05:21;47.13;;;28.63;;
5333;SDS011;2689;50.954;7.116;2023-04-16T00:07:49;48.63;;;31.37;;
5333;SDS011;2689;50.954;7.116;2023-04-16T00:10:16;46.07;;;31.60;;
5333;SDS011;2689;50.954;7.116;2023-04-16T00:12:43;49.00;;;33.70;;
5333;SDS011;2689;50.954;7.116;2023-04-16T00:15:10;52.47;;;35.70;;
5333;SDS011;2689;50.954;7.116;2023-04-16T00:17:37;50.17;;;35.50;;
5333;SDS011;2689;50.954;7.116;2023-04-16T00:20:04;54.27;;;36.30;;
5333;SDS011;2689;50.954;7.116;2023-04-16T00:22:33;55.63;;;36.80;;
5333;SDS011;2689;50.954;7.116;2023-04-16T00:25:01;57.97;;;35.97;;
5333;SDS011;2689;50.954;7.116;2023-04-16T00:27:27;63.90;;;37.17;;
5333;SDS011;2689;50.954;7.116;2023-04-16T00:29:54;61.40;;;37.27;;
5333;SDS011;2689;50.954;7.116;2023-04-16T00:32:21;56.25;;;35.50;;
5333;SDS011;2689;50.954;7.116;2023-04-16T00:34:48;58.40;;;36.83;;
5333;SDS011;2689;50.954;7.116;2023-04-16T00:37:14;52.60;;;35.53;;
5333;SDS011;2689;50.954;7.116;2023-04-16T00:39:41;62.20;;;37.57;;
5333;SDS011;2689;50.954;7.116;2023-04-16T00:42:09;54.17;;;35.80;;
5333;SDS011;2689;50.954;7.116;2023-04-16T00:44:36;61.50;;;37.90;;
5333;SDS011;2689;50.954;7.116;2023-04-16T00:47:02;55.67;;;36.27;;
5333;SDS011;2689;50.954;7.116;2023-04-16T00:49:31;55.37;;;34.37;;
5333;SDS011;2689;50.954;7.116;2023-04-16T00:51:58;51.50;;;34.77;;
5333;SDS011;2689;50.954;7.116;2023-04-16T00:54:26;64.20;;;37.03;;
5333;SDS011;2689;50.954;7.116;2023-04-16T00:56:53;62.20;;;35.93;;
5333;SDS011;2689;50.954;7.116;2023-04-16T00:59:22;61.90;;;33.80;;
5333;SDS011;2689;50.954;7.116;2023-04-16T01:01:48;53.70;;;34.77;;
5333;SDS011;2689;50.954;7.116;2023-04-16T01:04:15;65.27;;;35.83;;
5333;SDS011;2689;50.954;7.116;2023-04-16T01:06:42;56.17;;;36.93;;
5333;SDS011;2689;50.954;7.116;2023-04-16T01:09:09;56.10;;;34.50;;
5333;SDS011;2689;50.954;7.116;2023-04-16T01:11:36;57.10;;;35.90;;
5333;SDS011;2689;50.954;7.116;2023-04-16T01:14:03;57.57;;;34.10;;
5333;SDS011;2689;50.954;7.116;2023-04-16T01:16:32;60.60;;;36.30;;
5333;SDS011;2689;50.954;7.116;2023-04-16T01:18:58;62.20;;;35.93;;
5333;SDS011;2689;50.954;7.116;2023-04-16T01:21:26;53.70;;;34.70;;
5333;SDS011;2689;50.954;7.116;2023-04-16T01:23:53;58.17;;;36.43;;
5333;SDS011;2689;50.954;7.116;2023-04-16T01:26:20;63.10;;;35.23;;
5333;SDS011;2689;50.954;7.116;2023-04-16T01:28:46;66.07;;;36.83;;
5333;SDS011;2689;50.954;7.116;2023-04-16T01:31:13;58.93;;;34.27;;
5333;SDS011;2689;50.954;7.116;2023-04-16T01:33:40;62.47;;;36.80;;
5333;SDS011;2689;50.954;7.116;2023-04-16T01:36:07;64.17;;;38.43;;
5333;SDS011;2689;50.954;7.116;2023-04-16T01:38:35;62.47;;;36.57;;
5333;SDS011;2689;50.954;7.116;2023-04-16T01:41:01;59.43;;;38.33;;
5333;SDS011;2689;50.954;7.116;2023-04-16T01:43:28;59.17;;;37.17;;
5333;SDS011;2689;50.954;7.116;2023-04-16T01:45:58;57.60;;;36.73;;
5333;SDS011;2689;50.954;7.116;2023-04-16T01:48:37;63.70;;;38.03;;
5333;SDS011;2689;50.954;7.116;2023-04-16T01:51:04;55.83;;;29.70;;
5333;SDS011;2689;50.954;7.116;2023-04-16T01:53:30;58.50;;;37.60;;
5333;SDS011;2689;50.954;7.116;2023-04-16T01:55:59;61.10;;;36.80;;
5333;SDS011;2689;50.954;7.116;2023-04-16T01:58:26;55.10;;;35.20;;
5333;SDS011;2689;50.954;7.116;2023-04-16T02:00:54;66.00;;;39.00;;
5333;SDS011;2689;50.954;7.116;2023-04-16T02:03:21;70.27;;;38.50;;
5333;SDS011;2689;50.954;7.116;2023-04-16T02:05:48;54.83;;;35.47;;
5333;SDS011;2689;50.954;7.116;2023-04-16T02:08:15;50.10;;;27.70;;
5333;SDS011;2689;50.954;7.116;2023-04-16T02:10:44;56.70;;;33.40;;
5333;SDS011;2689;50.954;7.116;2023-04-16T02:13:12;46.73;;;30.27;;
5333;SDS011;2689;50.954;7.116;2023-04-16T02:15:39;54.77;;;28.40;;
5333;SDS011;2689;50.954;7.116;2023-04-16T02:18:10;48.40;;;29.27;;
5333;SDS011;2689;50.954;7.116;2023-04-16T02:20:38;46.80;;;29.53;;
5333;SDS011;2689;50.954;7.116;2023-04-16T02:23:06;49.10;;;29.17;;
5333;SDS011;2689;50.954;7.116;2023-04-16T02:25:36;54.50;;;30.97;;
5333;SDS011;2689;50.954;7.116;2023-04-16T02:28:04;48.97;;;29.77;;
5333;SDS011;2689;50.954;7.116;2023-04-16T02:30:33;43.17;;;27.90;;
5333;SDS011;2689;50.954;7.116;2023-04-16T02:33:00;52.17;;;31.63;;
5333;SDS011;2689;50.954;7.116;2023-04-16T02:35:27;61.27;;;34.33;;
5333;SDS011;2689;50.954;7.116;2023-04-16T02:37:54;63.73;;;35.23;;
5333;SDS011;2689;50.954;7.116;2023-04-16T02:40:21;59.97;;;34.63;;
5333;SDS011;2689;50.954;7.116;2023-04-16T02:42:48;44.27;;;28.53;;
5333;SDS011;2689;50.954;7.116;2023-04-16T02:45:14;57.80;;;36.80;;
5333;SDS011;2689;50.954;7.116;2023-04-16T02:47:42;57.70;;;34.60;;
5333;SDS011;2689;50.954;7.116;2023-04-16T02:50:10;58.87;;;37.27;;
5333;SDS011;2689;50.954;7.116;2023-04-16T02:52:36;56.77;;;35.33;;
5333;SDS011;2689;50.954;7.116;2023-04-16T02:55:03;63.07;;;38.80;;
5333;SDS011;2689;50.954;7.116;2023-04-16T02:57:31;70.63;;;38.63;;
5333;SDS011;2689;50.954;7.116;2023-04-16T02:59:57;61.87;;;37.63;;
5333;SDS011;2689;50.954;7.116;2023-04-16T03:02:24;73.73;;;39.97;;
5333;SDS011;2689;50.954;7.116;2023-04-16T03:04:52;61.90;;;40.20;;
5333;SDS011;2689;50.954;7.116;2023-04-16T03:07:19;76.00;;;39.23;;
5333;SDS011;2689;50.954;7.116;2023-04-16T03:09:46;81.43;;;41.30;;
5333;SDS011;2689;50.954;7.116;2023-04-16T03:12:13;68.00;;;36.63;;
5333;SDS011;2689;50.954;7.116;2023-04-16T03:14:39;60.23;;;33.40;;
5333;SDS011;2689;50.954;7.116;2023-04-16T03:17:06;72.37;;;37.50;;
5333;SDS011;2689;50.954;7.116;2023-04-16T03:19:33;64.93;;;34.13;;
5333;SDS011;2689;50.954;7.116;2023-04-16T03:22:01;60.77;;;32.80;;
5333;SDS011;2689;50.954;7.116;2023-04-16T03:24:27;70.53;;;34.50;;
5333;SDS011;2689;50.954;7.116;2023-04-16T03:26:55;54.30;;;30.70;;
5333;SDS011;2689;50.954;7.116;2023-04-16T03:29:22;69.00;;;35.20;;
5333;SDS011;2689;50.954;7.116;2023-04-16T03:31:50;65.90;;;33.47;;
5333;SDS011;2689;50.954;7.116;2023-04-16T03:34:17;59.23;;;33.87;;
5333;SDS011;2689;50.954;7.116;2023-04-16T03:36:44;65.23;;;34.67;;
5333;SDS011;2689;50.954;7.116;2023-04-16T03:39:12;76.50;;;37.17;;
5333;SDS011;2689;50.954;7.116;2023-04-16T03:41:39;62.53;;;34.17;;
5333;SDS011;2689;50.954;7.116;2023-04-16T03:44:06;61.73;;;36.43;;
5333;SDS011;2689;50.954;7.116;2023-04-16T03:46:32;58.33;;;32.93;;
5333;SDS011;2689;50.954;7.116;2023-04-16T03:48:59;60.80;;;36.17;;
5333;SDS011;2689;50.954;7.116;2023-04-16T03:51:26;65.37;;;35.80;;
5333;SDS011;2689;50.954;7.116;2023-04-16T03:53:53;62.03;;;36.60;;
5333;SDS011;2689;50.954;7.116;2023-04-16T03:56:21;70.53;;;36.93;;
5333;SDS011;2689;50.954;7.116;2023-04-16T03:58:48;71.23;;;37.37;;
5333;SDS011;2689;50.954;7.116;2023-04-16T04:01:15;85.90;;;33.03;;
5333;SDS011;2689;50.954;7.116;2023-04-16T04:03:41;67.43;;;36.90;;
5333;SDS011;2689;50.954;7.116;2023-04-16T04:06:08;64.40;;;36.83;;
5333;SDS011;2689;50.954;7.116;2023-04-16T04:08:35;63.43;;;35.40;;
5333;SDS011;2689;50.954;7.116;2023-04-16T04:11:02;62.57;;;34.87;;
5333;SDS011;2689;50.954;7.116;2023-04-16T04:13:30;63.97;;;35.20;;
5333;SDS011;2689;50.954;7.116;2023-04-16T04:15:57;66.33;;;36.53;;
5333;SDS011;2689;50.954;7.116;2023-04-16T04:18:24;62.53;;;33.37;;
5333;SDS011;2689;50.954;7.116;2023-04-16T04:20:51;59.00;;;34.60;;
5333;SDS011;2689;50.954;7.116;2023-04-16T04:23:17;57.37;;;33.60;;
5333;SDS011;2689;50.954;7.116;2023-04-16T04:25:44;62.63;;;33.40;;
5333;SDS011;2689;50.954;7.116;2023-04-16T04:28:11;51.57;;;28.43;;
5333;SDS011;2689;50.954;7.116;2023-04-16T04:30:39;60.93;;;33.93;;
5333;SDS011;2689;50.954;7.116;2023-04-16T04:33:06;55.27;;;31.70;;
5333;SDS011;2689;50.954;7.116;2023-04-16T04:35:32;62.00;;;33.77;;
5333;SDS011;2689;50.954;7.116;2023-04-16T04:38:00;61.70;;;33.07;;
5333;SDS011;2689;50.954;7.116;2023-04-16T04:40:26;62.83;;;34.13;;
5333;SDS011;2689;50.954;7.116;2023-04-16T04:42:53;44.60;;;26.20;;
5333;SDS011;2689;50.954;7.116;2023-04-16T04:45:20;47.73;;;24.80;;
5333;SDS011;2689;50.954;7.116;2023-04-16T04:47:50;48.70;;;29.20;;
5333;SDS011;2689;50.954;7.116;2023-04-16T04:50:17;53.23;;;29.40;;
5333;SDS011;2689;50.954;7.116;2023-04-16T04:52:44;44.40;;;27.80;;
5333;SDS011;2689;50.954;7.116;2023-04-16T04:55:11;50.53;;;26.90;;
5333;SDS011;2689;50.954;7.116;2023-04-16T04:57:39;64.83;;;31.63;;
5333;SDS011;2689;50.954;7.116;2023-04-16T05:00:06;48.37;;;27.60;;
5333;SDS011;2689;50.954;7.116;2023-04-16T05:02:34;55.73;;;31.70;;
5333;SDS011;2689;50.954;7.116;2023-04-16T05:05:02;44.60;;;28.27;;
5333;SDS011;2689;50.954;7.116;2023-04-16T05:07:29;57.40;;;30.77;;
5333;SDS011;2689;50.954;7.116;2023-04-16T05:09:56;55.87;;;30.97;;
5333;SDS011;2689;50.954;7.116;2023-04-16T05:12:23;58.47;;;32.20;;
5333;SDS011;2689;50.954;7.116;2023-04-16T05:14:49;61.07;;;35.10;;
5333;SDS011;2689;50.954;7.116;2023-04-16T05:17:16;57.40;;;33.83;;
5333;SDS011;2689;50.954;7.116;2023-04-16T05:19:43;56.70;;;32.70;;
5333;SDS011;2689;50.954;7.116;2023-04-16T05:22:11;57.70;;;32.43;;
5333;SDS011;2689;50.954;7.116;2023-04-16T05:24:38;52.73;;;31.17;;
5333;SDS011;2689;50.954;7.116;2023-04-16T05:27:05;57.93;;;31.03;;
5333;SDS011;2689;50.954;7.116;2023-04-16T05:29:31;65.97;;;31.43;;
5333;SDS011;2689;50.954;7.116;2023-04-16T05:31:58;54.67;;;30.30;;
5333;SDS011;2689;50.954;7.116;2023-04-16T05:34:26;45.07;;;24.30;;
5333;SDS011;2689;50.954;7.116;2023-04-16T05:36:52;46.30;;;26.77;;
5333;SDS011;2689;50.954;7.116;2023-04-16T05:39:20;50.03;;;28.20;;
5333;SDS011;2689;50.954;7.116;2023-04-16T05:41:47;61.23;;;32.50;;
5333;SDS011;2689;50.954;7.116;2023-04-16T05:44:14;55.53;;;31.07;;
5333;SDS011;2689;50.954;7.116;2023-04-16T05:46:40;51.50;;;31.00;;
5333;SDS011;2689;50.954;7.116;2023-04-16T05:49:07;48.30;;;30.60;;
5333;SDS011;2689;50.954;7.116;2023-04-16T05:51:34;50.33;;;28.70;;
5333;SDS011;2689;50.954;7.116;2023-04-16T05:54:01;53.97;;;30.50;;
5333;SDS011;2689;50.954;7.116;2023-04-16T05:56:29;55.17;;;29.70;;
5333;SDS011;2689;50.954;7.116;2023-04-16T05:58:55;56.57;;;29.93;;
5333;SDS011;2689;50.954;7.116;2023-04-16T06:01:22;57.63;;;30.60;;
5333;SDS011;2689;50.954;7.116;2023-04-16T06:03:50;54.60;;;29.73;;
5333;SDS011;2689;50.954;7.116;2023-04-16T06:06:16;54.97;;;29.90;;
5333;SDS011;2689;50.954;7.116;2023-04-16T06:08:43;50.83;;;27.30;;
5333;SDS011;2689;50.954;7.116;2023-04-16T06:11:10;50.93;;;29.73;;
5333;SDS011;2689;50.954;7.116;2023-04-16T06:13:38;48.53;;;28.50;;
5333;SDS011;2689;50.954;7.116;2023-04-16T06:16:05;53.80;;;30.20;;
5333;SDS011;2689;50.954;7.116;2023-04-16T06:18:32;49.43;;;28.07;;
5333;SDS011;2689;50.954;7.116;2023-04-16T06:20:59;51.57;;;27.90;;
5333;SDS011;2689;50.954;7.116;2023-04-16T06:23:26;48.27;;;29.00;;
5333;SDS011;2689;50.954;7.116;2023-04-16T06:25:52;52.07;;;30.80;;
5333;SDS011;2689;50.954;7.116;2023-04-16T06:28:20;42.33;;;25.97;;
5333;SDS011;2689;50.954;7.116;2023-04-16T06:30:48;42.53;;;25.60;;
5333;SDS011;2689;50.954;7.116;2023-04-16T06:33:15;51.43;;;28.20;;
5333;SDS011;2689;50.954;7.116;2023-04-16T06:35:41;52.60;;;28.57;;
5333;SDS011;2689;50.954;7.116;2023-04-16T06:38:08;47.77;;;28.43;;
5333;SDS011;2689;50.954;7.116;2023-04-16T06:40:35;46.13;;;28.47;;
5333;SDS011;2689;50.954;7.116;2023-04-16T06:43:02;47.63;;;28.37;;
5333;SDS011;2689;50.954;7.116;2023-04-16T06:45:29;48.93;;;26.33;;
5333;SDS011;2689;50.954;7.116;2023-04-16T06:47:57;50.43;;;29.80;;
5333;SDS011;2689;50.954;7.116;2023-04-16T06:50:24;46.70;;;27.07;;
5333;SDS011;2689;50.954;7.116;2023-04-16T06:52:52;46.13;;;27.43;;
5333;SDS011;2689;50.954;7.116;2023-04-16T06:55:19;49.10;;;27.33;;
5333;SDS011;2689;50.954;7.116;2023-04-16T06:57:46;44.20;;;26.97;;
5333;SDS011;2689;50.954;7.116;2023-04-16T07:00:12;51.13;;;28.53;;
5333;SDS011;2689;50.954;7.116;2023-04-16T07:02:39;46.17;;;27.37;;
5333;SDS011;2689;50.954;7.116;2023-04-16T07:05:08;50.50;;;28.03;;
5333;SDS011;2689;50.954;7.116;2023-04-16T07:07:34;45.57;;;26.97;;
5333;SDS011;2689;50.954;7.116;2023-04-16T07:10:01;45.90;;;28.77;;
5333;SDS011;2689;50.954;7.116;2023-04-16T07:12:29;45.63;;;26.50;;
5333;SDS011;2689;50.954;7.116;2023-04-16T07:14:57;46.93;;;26.90;;
5333;SDS011;2689;50.954;7.116;2023-04-16T07:17:23;46.53;;;27.43;;
5333;SDS011;2689;50.954;7.116;2023-04-16T07:19:50;39.83;;;22.67;;
5333;SDS011;2689;50.954;7.116;2023-04-16T07:22:19;46.50;;;25.67;;
5333;SDS011;2689;50.954;7.116;2023-04-16T07:24:46;42.80;;;25.00;;
5333;SDS011;2689;50.954;7.116;2023-04-16T07:27:12;40.90;;;23.70;;
5333;SDS011;2689;50.954;7.116;2023-04-16T07:29:39;32.87;;;21.17;;
5333;SDS011;2689;50.954;7.116;2023-04-16T07:32:06;39.10;;;22.43;;
5333;SDS011;2689;50.954;7.116;2023-04-16T07:34:33;33.70;;;21.73;;
5333;SDS011;2689;50.954;7.116;2023-04-16T07:37:00;32.60;;;20.17;;
5333;SDS011;2689;50.954;7.116;2023-04-16T07:39:28;37.23;;;22.43;;
5333;SDS011;2689;50.954;7.116;2023-04-16T07:41:54;28.80;;;19.00;;
5333;SDS011;2689;50.954;7.116;2023-04-16T07:44:21;33.07;;;20.13;;
5333;SDS011;2689;50.954;7.116;2023-04-16T07:46:48;37.40;;;21.47;;
5333;SDS011;2689;50.954;7.116;2023-04-16T07:49:15;42.27;;;22.90;;
5333;SDS011;2689;50.954;7.116;2023-04-16T07:51:41;33.33;;;23.33;;
5333;SDS011;2689;50.954;7.116;2023-04-16T07:54:08;40.10;;;23.30;;
5333;SDS011;2689;50.954;7.116;2023-04-16T07:56:36;30.50;;;20.50;;
5333;SDS011;2689;50.954;7.116;2023-04-16T07:59:03;38.13;;;19.70;;
5333;SDS011;2689;50.954;7.116;2023-04-16T08:01:30;34.63;;;19.73;;
5333;SDS011;2689;50.954;7.116;2023-04-16T08:03:58;29.83;;;19.17;;
5333;SDS011;2689;50.954;7.116;2023-04-16T08:06:24;32.43;;;21.03;;
5333;SDS011;2689;50.954;7.116;2023-04-16T08:08:51;32.80;;;19.87;;
5333;SDS011;2689;50.954;7.116;2023-04-16T08:11:18;35.43;;;22.40;;
5333;SDS011;2689;50.954;7.116;2023-04-16T08:13:46;28.83;;;20.67;;
5333;SDS011;2689;50.954;7.116;2023-04-16T08:16:13;34.93;;;19.17;;
5333;SDS011;2689;50.954;7.116;2023-04-16T08:18:40;34.07;;;22.70;;
5333;SDS011;2689;50.954;7.116;2023-04-16T08:21:07;38.70;;;24.13;;
5333;SDS011;2689;50.954;7.116;2023-04-16T08:23:34;34.27;;;23.00;;
5333;SDS011;2689;50.954;7.116;2023-04-16T08:26:01;30.57;;;21.07;;
5333;SDS011;2689;50.954;7.116;2023-04-16T08:28:28;36.37;;;24.13;;
5333;SDS011;2689;50.954;7.116;2023-04-16T08:30:57;41.67;;;24.17;;
5333;SDS011;2689;50.954;7.116;2023-04-16T08:33:24;35.40;;;23.23;;
5333;SDS011;2689;50.954;7.116;2023-04-16T08:35:51;36.60;;;22.40;;
5333;SDS011;2689;50.954;7.116;2023-04-16T08:38:18;42.27;;;24.93;;
5333;SDS011;2689;50.954;7.116;2023-04-16T08:40:44;33.23;;;22.43;;
5333;SDS011;2689;50.954;7.116;2023-04-16T08:43:13;37.67;;;24.33;;
5333;SDS011;2689;50.954;7.116;2023-04-16T08:45:43;35.17;;;22.73;;
5333;SDS011;2689;50.954;7.116;2023-04-16T08:48:13;34.73;;;24.40;;
5333;SDS011;2689;50.954;7.116;2023-04-16T08:50:40;35.27;;;22.70;;
5333;SDS011;2689;50.954;7.116;2023-04-16T08:53:09;33.70;;;21.40;;
5333;SDS011;2689;50.954;7.116;2023-04-16T08:55:42;34.60;;;20.30;;
5333;SDS011;2689;50.954;7.116;2023-04-16T08:58:13;31.67;;;21.50;;
5333;SDS011;2689;50.954;7.116;2023-04-16T09:00:40;34.80;;;22.47;;
5333;SDS011;2689;50.954;7.116;2023-04-16T09:03:10;33.13;;;21.60;;
5333;SDS011;2689;50.954;7.116;2023-04-16T09:05:38;29.50;;;21.00;;
5333;SDS011;2689;50.954;7.116;2023-04-16T09:08:06;29.63;;;21.30;;
5333;SDS011;2689;50.954;7.116;2023-04-16T09:10:34;31.57;;;21.83;;
5333;SDS011;2689;50.954;7.116;2023-04-16T09:13:00;27.87;;;20.50;;
5333;SDS011;2689;50.954;7.116;2023-04-16T09:15:27;40.63;;;22.37;;
5333;SDS011;2689;50.954;7.116;2023-04-16T09:17:54;30.57;;;20.90;;
5333;SDS011;2689;50.954;7.116;2023-04-16T09:20:21;32.03;;;21.33;;
5333;SDS011;2689;50.954;7.116;2023-04-16T09:22:49;27.17;;;19.60;;
5333;SDS011;2689;50.954;7.116;2023-04-16T09:25:16;26.00;;;17.40;;
5333;SDS011;2689;50.954;7.116;2023-04-16T09:27:47;30.37;;;20.93;;
5333;SDS011;2689;50.954;7.116;2023-04-16T09:30:18;30.20;;;19.57;;
5333;SDS011;2689;50.954;7.116;2023-04-16T09:32:46;28.03;;;19.70;;
5333;SDS011;2689;50.954;7.116;2023-04-16T09:35:13;28.60;;;20.27;;
5333;SDS011;2689;50.954;7.116;2023-04-16T09:37:40;29.27;;;21.50;;
5333;SDS011;2689;50.954;7.116;2023-04-16T09:40:09;26.80;;;20.40;;
5333;SDS011;2689;50.954;7.116;2023-04-16T09:42:36;26.97;;;19.90;;
5333;SDS011;2689;50.954;7.116;2023-04-16T09:45:03;31.37;;;20.23;;
5333;SDS011;2689;50.954;7.116;2023-04-16T09:47:38;28.13;;;19.37;;
5333;SDS011;2689;50.954;7.116;2023-04-16T09:50:06;26.97;;;19.40;;
5333;SDS011;2689;50.954;7.116;2023-04-16T09:52:35;25.60;;;19.10;;
5333;SDS011;2689;50.954;7.116;2023-04-16T09:55:02;23.23;;;18.50;;
5333;SDS011;2689;50.954;7.116;2023-04-16T09:57:31;30.90;;;21.03;;
5333;SDS011;2689;50.954;7.116;2023-04-16T10:00:00;31.57;;;21.43;;
5333;SDS011;2689;50.954;7.116;2023-04-16T10:02:27;28.57;;;21.70;;
5333;SDS011;2689;50.954;7.116;2023-04-16T10:04:55;26.73;;;20.50;;
5333;SDS011;2689;50.954;7.116;2023-04-16T10:07:22;28.73;;;22.77;;
5333;SDS011;2689;50.954;7.116;2023-04-16T10:09:53;26.27;;;21.23;;
5333;SDS011;2689;50.954;7.116;2023-04-16T10:12:21;25.70;;;20.60;;
5333;SDS011;2689;50.954;7.116;2023-04-16T10:14:49;31.17;;;20.43;;
5333;SDS011;2689;50.954;7.116;2023-04-16T10:17:15;27.50;;;20.50;;
5333;SDS011;2689;50.954;7.116;2023-04-16T10:19:42;26.73;;;20.37;;
5333;SDS011;2689;50.954;7.116;2023-04-16T10:22:10;27.77;;;20.63;;
5333;SDS011;2689;50.954;7.116;2023-04-16T10:24:37;26.90;;;20.43;;
5333;SDS011;2689;50.954;7.116;2023-04-16T10:27:06;27.97;;;21.17;;
5333;SDS011;2689;50.954;7.116;2023-04-16T10:29:32;28.40;;;19.17;;
5333;SDS011;2689;50.954;7.116;2023-04-16T10:32:02;29.80;;;20.00;;
5333;SDS011;2689;50.954;7.116;2023-04-16T10:34:30;27.70;;;20.70;;
5333;SDS011;2689;50.954;7.116;2023-04-16T10:36:57;24.70;;;19.93;;
5333;SDS011;2689;50.954;7.116;2023-04-16T10:39:26;31.03;;;22.70;;
5333;SDS011;2689;50.954;7.116;2023-04-16T10:42:05;28.63;;;19.17;;
5333;SDS011;2689;50.954;7.116;2023-04-16T10:44:33;22.67;;;18.57;;
5333;SDS011;2689;50.954;7.116;2023-04-16T10:47:00;25.00;;;20.07;;
5333;SDS011;2689;50.954;7.116;2023-04-16T10:49:28;25.40;;;20.00;;
5333;SDS011;2689;50.954;7.116;2023-04-16T10:51:55;24.90;;;19.10;;
5333;SDS011;2689;50.954;7.116;2023-04-16T10:54:24;20.17;;;16.40;;
5333;SDS011;2689;50.954;7.116;2023-04-16T10:56:52;23.90;;;18.63;;
5333;SDS011;2689;50.954;7.116;2023-04-16T10:59:21;27.53;;;18.80;;
5333;SDS011;2689;50.954;7.116;2023-04-16T11:01:49;23.63;;;19.00;;
5333;SDS011;2689;50.954;7.116;2023-04-16T11:04:34;23.37;;;17.27;;
5333;SDS011;2689;50.954;7.116;2023-04-16T11:07:04;20.77;;;16.93;;
5333;SDS011;2689;50.954;7.116;2023-04-16T11:09:41;22.73;;;18.20;;
5333;SDS011;2689;50.954;7.116;2023-04-16T11:12:17;21.67;;;16.03;;
5333;SDS011;2689;50.954;7.116;2023-04-16T11:14:46;20.73;;;15.93;;
5333;SDS011;2689;50.954;7.116;2023-04-16T11:17:14;19.77;;;16.40;;
5333;SDS011;2689;50.954;7.116;2023-04-16T11:19:42;17.20;;;14.33;;
5333;SDS011;2689;50.954;7.116;2023-04-16T11:22:10;20.23;;;15.27;;
5333;SDS011;2689;50.954;7.116;2023-04-16T11:24:39;22.07;;;15.70;;
5333;SDS011;2689;50.954;7.116;2023-04-16T11:27:06;18.50;;;15.73;;
5333;SDS011;2689;50.954;7.116;2023-04-16T11:29:33;24.93;;;18.27;;
5333;SDS011;2689;50.954;7.116;2023-04-16T11:32:00;22.47;;;17.90;;
5333;SDS011;2689;50.954;7.116;2023-04-16T11:34:27;26.73;;;19.57;;
5333;SDS011;2689;50.954;7.116;2023-04-16T11:36:55;27.73;;;20.80;;
5333;SDS011;2689;50.954;7.116;2023-04-16T11:39:22;25.70;;;20.87;;
5333;SDS011;2689;50.954;7.116;2023-04-16T11:41:49;24.37;;;19.73;;
5333;SDS011;2689;50.954;7.116;2023-04-16T11:44:18;26.80;;;19.63;;
5333;SDS011;2689;50.954;7.116;2023-04-16T11:46:45;32.70;;;22.53;;
5333;SDS011;2689;50.954;7.116;2023-04-16T11:49:13;27.03;;;21.07;;
5333;SDS011;2689;50.954;7.116;2023-04-16T11:51:41;20.63;;;17.20;;
5333;SDS011;2689;50.954;7.116;2023-04-16T11:54:12;20.20;;;15.37;;
5333;SDS011;2689;50.954;7.116;2023-04-16T11:56:44;21.10;;;17.67;;
5333;SDS011;2689;50.954;7.116;2023-04-16T11:59:13;21.60;;;18.13;;
5333;SDS011;2689;50.954;7.116;2023-04-16T12:01:44;21.50;;;17.27;;
5333;SDS011;2689;50.954;7.116;2023-04-16T12:04:12;21.53;;;18.33;;
5333;SDS011;2689;50.954;7.116;2023-04-16T12:06:40;19.80;;;15.50;;
5333;SDS011;2689;50.954;7.116;2023-04-16T12:09:33;19.93;;;15.80;;
5333;SDS011;2689;50.954;7.116;2023-04-16T12:12:01;18.13;;;14.80;;
5333;SDS011;2689;50.954;7.116;2023-04-16T12:14:28;20.80;;;16.23;;
5333;SDS011;2689;50.954;7.116;2023-04-16T12:16:55;18.93;;;16.00;;
5333;SDS011;2689;50.954;7.116;2023-04-16T12:19:22;18.60;;;15.87;;
5333;SDS011;2689;50.954;7.116;2023-04-16T12:21:49;20.83;;;16.07;;
5333;SDS011;2689;50.954;7.116;2023-04-16T12:24:16;20.10;;;15.57;;
5333;SDS011;2689;50.954;7.116;2023-04-16T12:26:52;17.80;;;15.07;;
5333;SDS011;2689;50.954;7.116;2023-04-16T12:29:21;16.93;;;13.60;;
5333;SDS011;2689;50.954;7.116;2023-04-16T12:31:50;17.70;;;12.80;;
5333;SDS011;2689;50.954;7.116;2023-04-16T12:34:18;14.53;;;12.77;;
5333;SDS011;2689;50.954;7.116;2023-04-16T12:36:46;14.03;;;11.50;;
5333;SDS011;2689;50.954;7.116;2023-04-16T12:39:14;11.90;;;10.50;;
5333;SDS011;2689;50.954;7.116;2023-04-16T12:41:42;16.90;;;12.57;;
5333;SDS011;2689;50.954;7.116;2023-04-16T12:44:11;14.50;;;11.90;;
5333;SDS011;2689;50.954;7.116;2023-04-16T12:46:42;11.83;;;10.63;;
5333;SDS011;2689;50.954;7.116;2023-04-16T12:49:10;14.30;;;12.00;;
5333;SDS011;2689;50.954;7.116;2023-04-16T12:51:37;16.53;;;13.73;;
5333;SDS011;2689;50.954;7.116;2023-04-16T12:54:05;14.63;;;11.77;;
5333;SDS011;2689;50.954;7.116;2023-04-16T12:56:32;15.50;;;10.87;;
5333;SDS011;2689;50.954;7.116;2023-04-16T12:58:59;15.43;;;12.00;;
5333;SDS011;2689;50.954;7.116;2023-04-16T13:01:28;13.47;;;12.03;;
5333;SDS011;2689;50.954;7.116;2023-04-16T13:03:55;12.37;;;11.07;;
5333;SDS011;2689;50.954;7.116;2023-04-16T13:06:21;17.93;;;13.07;;
5333;SDS011;2689;50.954;7.116;2023-04-16T13:08:48;15.10;;;10.77;;
5333;SDS011;2689;50.954;7.116;2023-04-16T13:11:15;15.57;;;12.30;;
5333;SDS011;2689;50.954;7.116;2023-04-16T13:13:43;13.90;;;11.03;;
5333;SDS011;2689;50.954;7.116;2023-04-16T13:16:10;14.20;;;11.50;;
5333;SDS011;2689;50.954;7.116;2023-04-16T13:18:38;12.30;;;10.80;;
5333;SDS011;2689;50.954;7.116;2023-04-16T13:21:05;13.23;;;11.57;;
5333;SDS011;2689;50.954;7.116;2023-04-16T13:23:33;13.43;;;11.97;;
5333;SDS011;2689;50.954;7.116;2023-04-16T13:26:00;13.33;;;11.87;;
5333;SDS011;2689;50.954;7.116;2023-04-16T13:28:27;18.60;;;14.97;;
5333;SDS011;2689;50.954;7.116;2023-04-16T13:30:53;16.60;;;14.00;;
5333;SDS011;2689;50.954;7.116;2023-04-16T13:33:20;13.70;;;11.83;;
5333;SDS011;2689;50.954;7.116;2023-04-16T13:35:48;14.47;;;11.73;;
5333;SDS011;2689;50.954;7.116;2023-04-16T13:38:15;15.53;;;13.23;;
5333;SDS011;2689;50.954;7.116;2023-04-16T13:40:42;20.73;;;14.70;;
5333;SDS011;2689;50.954;7.116;2023-04-16T13:43:09;16.70;;;11.70;;
5333;SDS011;2689;50.954;7.116;2023-04-16T13:45:37;12.97;;;11.60;;
5333;SDS011;2689;50.954;7.116;2023-04-16T13:48:05;13.93;;;11.77;;
5333;SDS011;2689;50.954;7.116;2023-04-16T13:50:32;15.90;;;12.00;;
5333;SDS011;2689;50.954;7.116;2023-04-16T13:53:00;15.03;;;12.73;;
5333;SDS011;2689;50.954;7.116;2023-04-16T13:55:28;13.17;;;11.77;;
5333;SDS011;2689;50.954;7.116;2023-04-16T13:57:56;14.00;;;12.30;;
5333;SDS011;2689;50.954;7.116;2023-04-16T14:00:24;12.80;;;11.50;;
5333;SDS011;2689;50.954;7.116;2023-04-16T14:02:51;17.70;;;13.67;;
5333;SDS011;2689;50.954;7.116;2023-04-16T14:05:18;15.30;;;13.63;;
5333;SDS011;2689;50.954;7.116;2023-04-16T14:07:44;13.87;;;12.43;;
5333;SDS011;2689;50.954;7.116;2023-04-16T14:10:12;15.77;;;12.67;;
5333;SDS011;2689;50.954;7.116;2023-04-16T14:12:39;18.67;;;12.57;;
5333;SDS011;2689;50.954;7.116;2023-04-16T14:15:06;14.67;;;12.20;;
5333;SDS011;2689;50.954;7.116;2023-04-16T14:17:34;14.27;;;12.43;;
5333;SDS011;2689;50.954;7.116;2023-04-16T14:20:01;14.77;;;12.10;;
5333;SDS011;2689;50.954;7.116;2023-04-16T14:22:29;15.40;;;12.30;;
5333;SDS011;2689;50.954;7.116;2023-04-16T14:24:55;14.33;;;12.60;;
5333;SDS011;2689;50.954;7.116;2023-04-16T14:27:24;14.13;;;11.77;;
5333;SDS011;2689;50.954;7.116;2023-04-16T14:29:51;15.17;;;12.93;;
5333;SDS011;2689;50.954;7.116;2023-04-16T14:32:18;14.13;;;11.90;;
5333;SDS011;2689;50.954;7.116;2023-04-16T14:34:45;15.00;;;13.33;;
5333;SDS011;2689;50.954;7.116;2023-04-16T14:37:13;14.30;;;12.60;;
5333;SDS011;2689;50.954;7.116;2023-04-16T14:39:41;13.40;;;11.97;;
5333;SDS011;2689;50.954;7.116;2023-04-16T14:42:08;14.77;;;12.20;;
5333;SDS011;2689;50.954;7.116;2023-04-16T14:44:37;14.30;;;12.80;;
5333;SDS011;2689;50.954;7.116;2023-04-16T14:47:03;18.73;;;16.53;;
5333;SDS011;2689;50.954;7.116;2023-04-16T14:49:30;15.27;;;13.10;;